sensor_id;sensor_type;location;lat;lon;timestamp;pressure;altitude;pressure_sealevel;temperature;humidity
36600;BME280;35385;55.668;37.508;2023-04-22T00:00:38;98736.41;;;11.37;75.09
36600;BME280;35385;55.668;37.508;2023-04-22T00:01:40;98675.88;;;10.92;74.32
36600;BME280;35385;55.668;37.508;2023-04-22T00:02:41;98733.72;;;11.19;74.15
36600;BME280;35385;55.668;37.508;2023-04-22T00:03:41;98732.72;;;11.02;74.93
36600;BME280;35385;55.668;37.508;2023-04-22T00:04:44;98698.31;;;10.81;75.49
36600;BME280;35385;55.668;37.508;2023-04-22T00:05:48;98735.94;;;11.06;76.26
36600;BME280;35385;55.668;37.508;2023-04-22T00:06:49;98745.34;;;11.10;76.97
36600;BME280;35385;55.668;37.508;2023-04-22T00:07:50;98750.38;;;11.13;76.02
36600;BME280;35385;55.668;37.508;2023-04-22T00:08:51;98740.59;;;11.04;75.54
36600;BME280;35385;55.668;37.508;2023-04-22T00:09:51;98751.00;;;11.07;76.04
36600;BME280;35385;55.668;37.508;2023-04-22T00:10:52;98741.50;;;10.94;75.81
36600;BME280;35385;55.668;37.508;2023-04-22T00:11:52;98723.91;;;10.74;76.43
36600;BME280;35385;55.668;37.508;2023-04-22T00:12:53;98751.41;;;10.84;77.42
36600;BME280;35385;55.668;37.508;2023-04-22T00:13:54;98738.81;;;10.77;78.00
36600;BME280;35385;55.668;37.508;2023-04-22T00:14:54;98731.53;;;10.69;77.50
36600;BME280;35385;55.668;37.508;2023-04-22T00:15:55;98729.25;;;10.74;77.31
36600;BME280;35385;55.668;37.508;2023-04-22T00:16:56;98739.25;;;10.72;77.67
36600;BME280;35385;55.668;37.508;2023-04-22T00:17:57;98696.53;;;10.45;77.97
36600;BME280;35385;55.668;37.508;2023-04-22T00:18:58;98743.91;;;10.70;78.25
36600;BME280;35385;55.668;37.508;2023-04-22T00:19:59;98742.47;;;10.76;78.93
36600;BME280;35385;55.668;37.508;2023-04-22T00:21:01;98699.84;;;10.56;78.36
36600;BME280;35385;55.668;37.508;2023-04-22T00:22:02;98748.25;;;10.71;77.97
36600;BME280;35385;55.668;37.508;2023-04-22T00:23:03;98744.44;;;10.74;78.44
36600;BME280;35385;55.668;37.508;2023-04-22T00:24:03;98624.47;;;9.90;78.66
36600;BME280;35385;55.668;37.508;2023-04-22T00:25:04;98741.03;;;10.81;79.33
36600;BME280;35385;55.668;37.508;2023-04-22T00:26:05;98753.63;;;10.89;79.40
36600;BME280;35385;55.668;37.508;2023-04-22T00:27:06;98751.75;;;10.72;78.95
36600;BME280;35385;55.668;37.508;2023-04-22T00:28:07;98746.06;;;10.84;80.09
36600;BME280;35385;55.668;37.508;2023-04-22T00:29:08;98747.16;;;10.91;80.71
36600;BME280;35385;55.668;37.508;2023-04-22T00:30:08;98750.56;;;10.84;78.52
36600;BME280;35385;55.668;37.508;2023-04-22T00:31:09;98718.41;;;10.58;79.48
36600;BME280;35385;55.668;37.508;2023-04-22T00:32:10;98657.91;;;10.21;79.80
36600;BME280;35385;55.668;37.508;2023-04-22T00:33:10;98753.84;;;10.78;79.69
36600;BME280;35385;55.668;37.508;2023-04-22T00:34:11;98752.03;;;10.78;79.86
36600;BME280;35385;55.668;37.508;2023-04-22T00:35:12;98743.19;;;10.68;78.98
36600;BME280;35385;55.668;37.508;2023-04-22T00:36:12;98749.59;;;10.57;78.81
36600;BME280;35385;55.668;37.508;2023-04-22T00:37:13;98749.03;;;10.54;79.24
36600;BME280;35385;55.668;37.508;2023-04-22T00:38:13;98752.41;;;10.56;79.45
36600;BME280;35385;55.668;37.508;2023-04-22T00:39:14;98751.72;;;10.54;80.03
36600;BME280;35385;55.668;37.508;2023-04-22T00:40:15;98740.66;;;10.49;80.54
36600;BME280;35385;55.668;37.508;2023-04-22T00:41:16;98710.97;;;10.15;80.36
36600;BME280;35385;55.668;37.508;2023-04-22T00:42:16;98749.94;;;10.45;80.85
36600;BME280;35385;55.668;37.508;2023-04-22T00:43:17;98755.84;;;10.48;81.14
36600;BME280;35385;55.668;37.508;2023-04-22T00:44:17;98733.38;;;10.41;81.12
36600;BME280;35385;55.668;37.508;2023-04-22T00:45:19;98742.72;;;10.55;80.54
36600;BME280;35385;55.668;37.508;2023-04-22T00:46:20;98754.34;;;10.63;80.68
36600;BME280;35385;55.668;37.508;2023-04-22T00:47:21;98754.50;;;10.62;81.84
36600;BME280;35385;55.668;37.508;2023-04-22T00:48:26;98758.38;;;10.68;82.24
36600;BME280;35385;55.668;37.508;2023-04-22T00:49:27;98754.16;;;10.75;82.30
36600;BME280;35385;55.668;37.508;2023-04-22T00:50:27;98726.56;;;10.56;81.29
36600;BME280;35385;55.668;37.508;2023-04-22T00:51:28;98715.38;;;10.43;81.40
36600;BME280;35385;55.668;37.508;2023-04-22T00:52:28;98743.81;;;10.62;82.01
36600;BME280;35385;55.668;37.508;2023-04-22T00:53:29;98733.84;;;10.64;81.65
36600;BME280;35385;55.668;37.508;2023-04-22T00:54:31;98716.50;;;10.41;81.32
36600;BME280;35385;55.668;37.508;2023-04-22T00:55:33;98746.06;;;10.67;81.86
36600;BME280;35385;55.668;37.508;2023-04-22T00:56:34;98744.22;;;10.67;82.04
36600;BME280;35385;55.668;37.508;2023-04-22T00:57:38;98744.75;;;10.71;81.60
36600;BME280;35385;55.668;37.508;2023-04-22T00:58:39;98747.31;;;10.62;81.05
36600;BME280;35385;55.668;37.508;2023-04-22T00:59:41;98747.06;;;10.56;80.94
36600;BME280;35385;55.668;37.508;2023-04-22T01:00:42;98755.47;;;10.61;81.63
36600;BME280;35385;55.668;37.508;2023-04-22T01:01:43;98704.66;;;10.25;81.63
36600;BME280;35385;55.668;37.508;2023-04-22T01:02:43;98707.16;;;10.37;82.16
36600;BME280;35385;55.668;37.508;2023-04-22T01:03:45;98680.25;;;10.20;81.68
36600;BME280;35385;55.668;37.508;2023-04-22T01:04:47;98742.84;;;10.63;81.52
36600;BME280;35385;55.668;37.508;2023-04-22T01:05:48;98743.81;;;10.62;81.83
36600;BME280;35385;55.668;37.508;2023-04-22T01:06:51;98688.59;;;10.35;81.39
36600;BME280;35385;55.668;37.508;2023-04-22T01:07:52;98738.88;;;10.67;80.63
36600;BME280;35385;55.668;37.508;2023-04-22T01:08:53;98726.13;;;10.61;80.24
36600;BME280;35385;55.668;37.508;2023-04-22T01:09:54;98742.22;;;10.69;79.79
36600;BME280;35385;55.668;37.508;2023-04-22T01:10:55;98737.19;;;10.66;79.92
36600;BME280;35385;55.668;37.508;2023-04-22T01:11:56;98745.28;;;10.74;80.29
36600;BME280;35385;55.668;37.508;2023-04-22T01:12:57;98743.91;;;10.70;80.38
36600;BME280;35385;55.668;37.508;2023-04-22T01:13:57;98654.25;;;10.22;79.92
36600;BME280;35385;55.668;37.508;2023-04-22T01:14:58;98741.78;;;10.74;80.15
36600;BME280;35385;55.668;37.508;2023-04-22T01:15:59;98739.69;;;10.68;80.21
36600;BME280;35385;55.668;37.508;2023-04-22T01:17:00;98691.72;;;10.31;80.45
36600;BME280;35385;55.668;37.508;2023-04-22T01:18:02;98742.13;;;10.61;81.45
36600;BME280;35385;55.668;37.508;2023-04-22T01:19:04;98736.16;;;10.49;81.73
36600;BME280;35385;55.668;37.508;2023-04-22T01:20:06;98698.94;;;10.20;82.09
36600;BME280;35385;55.668;37.508;2023-04-22T01:21:10;98696.97;;;10.22;82.71
36600;BME280;35385;55.668;37.508;2023-04-22T01:22:12;98738.38;;;10.54;82.47
36600;BME280;35385;55.668;37.508;2023-04-22T01:23:20;98739.81;;;10.48;82.15
36600;BME280;35385;55.668;37.508;2023-04-22T01:24:20;98740.94;;;10.46;82.07
36600;BME280;35385;55.668;37.508;2023-04-22T01:25:21;98737.88;;;10.41;82.11
36600;BME280;35385;55.668;37.508;2023-04-22T01:26:22;98690.78;;;10.12;83.00
36600;BME280;35385;55.668;37.508;2023-04-22T01:27:23;98718.00;;;10.25;82.73
36600;BME280;35385;55.668;37.508;2023-04-22T01:28:24;98745.78;;;10.33;83.16
36600;BME280;35385;55.668;37.508;2023-04-22T01:29:25;98675.16;;;9.90;83.15
36600;BME280;35385;55.668;37.508;2023-04-22T01:30:26;98672.63;;;9.88;83.53
36600;BME280;35385;55.668;37.508;2023-04-22T01:31:28;98734.84;;;10.26;83.71
36600;BME280;35385;55.668;37.508;2023-04-22T01:32:29;98642.06;;;9.73;83.56
36600;BME280;35385;55.668;37.508;2023-04-22T01:33:30;98713.25;;;10.19;83.56
36600;BME280;35385;55.668;37.508;2023-04-22T01:34:31;98741.56;;;10.30;83.02
36600;BME280;35385;55.668;37.508;2023-04-22T01:35:32;98725.16;;;10.15;83.55
36600;BME280;35385;55.668;37.508;2023-04-22T01:36:36;98736.69;;;10.16;83.90
36600;BME280;35385;55.668;37.508;2023-04-22T01:37:37;98734.59;;;10.19;84.70
36600;BME280;35385;55.668;37.508;2023-04-22T01:38:39;98747.06;;;10.28;84.69
36600;BME280;35385;55.668;37.508;2023-04-22T01:39:40;98735.81;;;10.35;85.33
36600;BME280;35385;55.668;37.508;2023-04-22T01:40:40;98672.19;;;9.93;84.72
36600;BME280;35385;55.668;37.508;2023-04-22T01:41:41;98741.47;;;10.22;83.72
36600;BME280;35385;55.668;37.508;2023-04-22T01:42:42;98728.69;;;10.16;83.68
36600;BME280;35385;55.668;37.508;2023-04-22T01:43:43;98729.94;;;10.12;84.98
36600;BME280;35385;55.668;37.508;2023-04-22T01:44:43;98714.53;;;10.06;84.51
36600;BME280;35385;55.668;37.508;2023-04-22T01:45:44;98742.72;;;10.18;85.20
36600;BME280;35385;55.668;37.508;2023-04-22T01:46:44;98640.03;;;9.57;85.51
36600;BME280;35385;55.668;37.508;2023-04-22T01:47:45;98726.28;;;10.13;85.49
36600;BME280;35385;55.668;37.508;2023-04-22T01:48:45;98724.75;;;10.10;85.99
36600;BME280;35385;55.668;37.508;2023-04-22T01:49:50;98741.66;;;10.01;86.07
36600;BME280;35385;55.668;37.508;2023-04-22T01:50:51;98738.09;;;10.10;86.41
36600;BME280;35385;55.668;37.508;2023-04-22T01:51:51;98681.13;;;9.65;86.54
36600;BME280;35385;55.668;37.508;2023-04-22T01:52:52;98632.25;;;9.37;86.17
36600;BME280;35385;55.668;37.508;2023-04-22T01:53:53;98731.97;;;10.00;86.57
36600;BME280;35385;55.668;37.508;2023-04-22T01:54:54;98732.38;;;10.05;86.22
36600;BME280;35385;55.668;37.508;2023-04-22T01:55:55;98685.03;;;9.80;86.90
36600;BME280;35385;55.668;37.508;2023-04-22T01:56:55;98735.59;;;10.18;87.45
36600;BME280;35385;55.668;37.508;2023-04-22T01:57:57;98737.13;;;10.21;86.99
36600;BME280;35385;55.668;37.508;2023-04-22T01:58:58;98730.09;;;10.10;86.25
36600;BME280;35385;55.668;37.508;2023-04-22T01:59:58;98730.09;;;10.10;85.82
36600;BME280;35385;55.668;37.508;2023-04-22T02:00:59;98720.53;;;10.17;86.82
36600;BME280;35385;55.668;37.508;2023-04-22T02:02:00;98684.41;;;9.86;85.30
36600;BME280;35385;55.668;37.508;2023-04-22T02:03:00;98742.16;;;10.14;86.40
36600;BME280;35385;55.668;37.508;2023-04-22T02:04:01;98739.25;;;10.08;86.16
36600;BME280;35385;55.668;37.508;2023-04-22T02:05:02;98731.81;;;10.02;86.25
36600;BME280;35385;55.668;37.508;2023-04-22T02:06:04;98731.97;;;10.00;87.22
36600;BME280;35385;55.668;37.508;2023-04-22T02:07:04;98718.63;;;10.00;87.43
36600;BME280;35385;55.668;37.508;2023-04-22T02:08:05;98727.31;;;10.02;86.76
36600;BME280;35385;55.668;37.508;2023-04-22T02:09:06;98733.91;;;10.08;88.29
36600;BME280;35385;55.668;37.508;2023-04-22T02:10:07;98727.63;;;9.99;86.52
36600;BME280;35385;55.668;37.508;2023-04-22T02:11:08;98692.69;;;9.83;86.64
36600;BME280;35385;55.668;37.508;2023-04-22T02:12:09;98728.72;;;10.06;86.91
36600;BME280;35385;55.668;37.508;2023-04-22T02:13:10;98730.41;;;10.07;86.82
36600;BME280;35385;55.668;37.508;2023-04-22T02:14:11;98662.84;;;9.70;86.55
36600;BME280;35385;55.668;37.508;2023-04-22T02:15:11;98730.94;;;10.11;87.08
36600;BME280;35385;55.668;37.508;2023-04-22T02:16:12;98720.59;;;10.08;87.20
36600;BME280;35385;55.668;37.508;2023-04-22T02:17:13;98693.69;;;9.91;86.66
36600;BME280;35385;55.668;37.508;2023-04-22T02:18:13;98743.31;;;10.21;87.25
36600;BME280;35385;55.668;37.508;2023-04-22T02:19:14;98717.59;;;10.11;87.52
36600;BME280;35385;55.668;37.508;2023-04-22T02:20:14;98719.59;;;9.99;86.67
36600;BME280;35385;55.668;37.508;2023-04-22T02:21:15;98692.03;;;9.81;86.76
36600;BME280;35385;55.668;37.508;2023-04-22T02:22:16;98727.63;;;9.99;86.86
36600;BME280;35385;55.668;37.508;2023-04-22T02:23:16;98739.78;;;10.11;86.88
36600;BME280;35385;55.668;37.508;2023-04-22T02:24:17;98732.09;;;10.08;86.40
36600;BME280;35385;55.668;37.508;2023-04-22T02:25:18;98735.44;;;10.10;87.59
36600;BME280;35385;55.668;37.508;2023-04-22T02:26:18;98721.41;;;10.08;87.74
36600;BME280;35385;55.668;37.508;2023-04-22T02:27:20;98714.84;;;10.03;87.26
36600;BME280;35385;55.668;37.508;2023-04-22T02:28:20;98732.75;;;10.10;87.67
36600;BME280;35385;55.668;37.508;2023-04-22T02:29:21;98745.81;;;10.13;87.47
36600;BME280;35385;55.668;37.508;2023-04-22T02:30:23;98680.22;;;9.83;87.37
36600;BME280;35385;55.668;37.508;2023-04-22T02:31:24;98732.66;;;10.02;86.96
36600;BME280;35385;55.668;37.508;2023-04-22T02:32:24;98717.22;;;9.96;87.04
36600;BME280;35385;55.668;37.508;2023-04-22T02:33:25;98723.13;;;10.00;87.15
36600;BME280;35385;55.668;37.508;2023-04-22T02:34:25;98695.97;;;9.77;87.28
36600;BME280;35385;55.668;37.508;2023-04-22T02:35:26;98730.75;;;9.85;87.50
36600;BME280;35385;55.668;37.508;2023-04-22T02:36:27;98741.69;;;9.91;88.68
36600;BME280;35385;55.668;37.508;2023-04-22T02:37:28;98725.41;;;9.85;87.95
36600;BME280;35385;55.668;37.508;2023-04-22T02:38:28;98739.16;;;9.90;88.00
36600;BME280;35385;55.668;37.508;2023-04-22T02:39:29;98743.22;;;9.94;88.57
36600;BME280;35385;55.668;37.508;2023-04-22T02:40:29;98697.41;;;9.62;88.57
36600;BME280;35385;55.668;37.508;2023-04-22T02:41:30;98740.84;;;9.91;88.44
36600;BME280;35385;55.668;37.508;2023-04-22T02:42:31;98736.06;;;9.85;89.05
36600;BME280;35385;55.668;37.508;2023-04-22T02:43:32;98725.69;;;9.82;89.34
36600;BME280;35385;55.668;37.508;2023-04-22T02:44:32;98641.34;;;9.34;88.97
36600;BME280;35385;55.668;37.508;2023-04-22T02:45:33;98743.78;;;9.88;88.46
36600;BME280;35385;55.668;37.508;2023-04-22T02:46:34;98700.63;;;9.55;88.78
36600;BME280;35385;55.668;37.508;2023-04-22T02:47:34;98742.41;;;9.84;88.94
36600;BME280;35385;55.668;37.508;2023-04-22T02:48:35;98740.28;;;9.87;88.92
36600;BME280;35385;55.668;37.508;2023-04-22T02:49:36;98738.19;;;9.91;89.57
36600;BME280;35385;55.668;37.508;2023-04-22T02:50:36;98756.00;;;9.90;89.63
36600;BME280;35385;55.668;37.508;2023-04-22T02:51:37;98751.22;;;9.94;90.10
36600;BME280;35385;55.668;37.508;2023-04-22T02:52:38;98740.09;;;9.99;89.83
36600;BME280;35385;55.668;37.508;2023-04-22T02:53:39;98736.22;;;9.83;89.66
36600;BME280;35385;55.668;37.508;2023-04-22T02:54:40;98727.28;;;9.75;89.20
36600;BME280;35385;55.668;37.508;2023-04-22T02:55:40;98746.03;;;9.83;89.35
36600;BME280;35385;55.668;37.508;2023-04-22T02:56:41;98698.56;;;9.49;90.25
36600;BME280;35385;55.668;37.508;2023-04-22T02:57:42;98758.00;;;9.69;90.41
36600;BME280;35385;55.668;37.508;2023-04-22T02:58:43;98702.22;;;9.48;91.01
36600;BME280;35385;55.668;37.508;2023-04-22T02:59:43;98738.91;;;9.74;90.52
36600;BME280;35385;55.668;37.508;2023-04-22T03:00:44;98748.03;;;9.81;90.01
36600;BME280;35385;55.668;37.508;2023-04-22T03:01:44;98739.19;;;9.80;89.52
36600;BME280;35385;55.668;37.508;2023-04-22T03:02:45;98739.72;;;9.84;90.73
36600;BME280;35385;55.668;37.508;2023-04-22T03:03:46;98741.53;;;9.93;90.04
36600;BME280;35385;55.668;37.508;2023-04-22T03:04:46;98742.53;;;9.92;90.17
36600;BME280;35385;55.668;37.508;2023-04-22T03:05:47;98632.22;;;9.27;89.28
36600;BME280;35385;55.668;37.508;2023-04-22T03:06:48;98744.75;;;9.97;88.80
36600;BME280;35385;55.668;37.508;2023-04-22T03:07:49;98555.75;;;8.81;89.37
36600;BME280;35385;55.668;37.508;2023-04-22T03:08:49;98753.72;;;9.96;89.18
36600;BME280;35385;55.668;37.508;2023-04-22T03:09:50;98745.06;;;9.84;89.42
36600;BME280;35385;55.668;37.508;2023-04-22T03:10:51;98711.84;;;9.59;89.57
36600;BME280;35385;55.668;37.508;2023-04-22T03:11:51;98742.44;;;9.74;89.62
36600;BME280;35385;55.668;37.508;2023-04-22T03:12:52;98753.75;;;9.86;90.31
36600;BME280;35385;55.668;37.508;2023-04-22T03:13:52;98750.13;;;9.87;90.03
36600;BME280;35385;55.668;37.508;2023-04-22T03:14:53;98651.03;;;9.35;90.51
36600;BME280;35385;55.668;37.508;2023-04-22T03:15:54;98739.31;;;9.88;90.18
36600;BME280;35385;55.668;37.508;2023-04-22T03:16:54;98754.31;;;9.89;90.82
36600;BME280;35385;55.668;37.508;2023-04-22T03:17:55;98759.91;;;9.96;90.38
36600;BME280;35385;55.668;37.508;2023-04-22T03:18:56;98740.56;;;9.94;89.97
36600;BME280;35385;55.668;37.508;2023-04-22T03:19:56;98743.06;;;9.96;89.77
36600;BME280;35385;55.668;37.508;2023-04-22T03:20:57;98753.75;;;9.86;91.97
36600;BME280;35385;55.668;37.508;2023-04-22T03:21:57;98749.41;;;9.85;92.01
36600;BME280;35385;55.668;37.508;2023-04-22T03:22:58;98682.84;;;9.46;91.22
36600;BME280;35385;55.668;37.508;2023-04-22T03:23:59;98719.13;;;9.67;91.16
36600;BME280;35385;55.668;37.508;2023-04-22T03:24:59;98760.78;;;9.87;91.61
36600;BME280;35385;55.668;37.508;2023-04-22T03:26:00;98666.88;;;9.37;91.37
36600;BME280;35385;55.668;37.508;2023-04-22T03:27:01;98716.22;;;9.60;91.42
36600;BME280;35385;55.668;37.508;2023-04-22T03:28:03;98756.31;;;9.78;91.08
36600;BME280;35385;55.668;37.508;2023-04-22T03:29:03;98717.06;;;9.61;90.98
36600;BME280;35385;55.668;37.508;2023-04-22T03:30:05;98765.84;;;9.90;90.99
36600;BME280;35385;55.668;37.508;2023-04-22T03:31:06;98692.91;;;9.52;90.29
36600;BME280;35385;55.668;37.508;2023-04-22T03:32:07;98739.72;;;9.93;91.44
36600;BME280;35385;55.668;37.508;2023-04-22T03:33:07;98765.78;;;10.09;91.59
36600;BME280;35385;55.668;37.508;2023-04-22T03:34:08;98748.63;;;10.12;90.98
36600;BME280;35385;55.668;37.508;2023-04-22T03:35:09;98758.88;;;10.26;89.50
36600;BME280;35385;55.668;37.508;2023-04-22T03:36:09;98761.50;;;10.36;88.52
36600;BME280;35385;55.668;37.508;2023-04-22T03:37:10;98773.28;;;10.43;87.73
36600;BME280;35385;55.668;37.508;2023-04-22T03:38:11;98754.84;;;10.49;88.54
36600;BME280;35385;55.668;37.508;2023-04-22T03:39:11;98746.34;;;10.36;87.78
36600;BME280;35385;55.668;37.508;2023-04-22T03:40:12;98706.00;;;10.02;89.54
36600;BME280;35385;55.668;37.508;2023-04-22T03:41:12;98660.88;;;9.72;88.03
36600;BME280;35385;55.668;37.508;2023-04-22T03:42:13;98708.00;;;9.90;88.35
36600;BME280;35385;55.668;37.508;2023-04-22T03:43:14;98750.72;;;10.18;88.09
36600;BME280;35385;55.668;37.508;2023-04-22T03:44:15;98758.72;;;10.18;88.37
36600;BME280;35385;55.668;37.508;2023-04-22T03:45:15;98755.88;;;10.39;88.82
36600;BME280;35385;55.668;37.508;2023-04-22T03:46:16;98774.19;;;10.61;88.58
36600;BME280;35385;55.668;37.508;2023-04-22T03:47:17;98711.63;;;10.36;87.89
36600;BME280;35385;55.668;37.508;2023-04-22T03:48:17;98750.91;;;10.71;86.55
36600;BME280;35385;55.668;37.508;2023-04-22T03:49:18;98752.59;;;10.72;85.56
36600;BME280;35385;55.668;37.508;2023-04-22T03:50:19;98744.53;;;10.54;85.76
36600;BME280;35385;55.668;37.508;2023-04-22T03:51:19;98730.19;;;10.38;86.56
36600;BME280;35385;55.668;37.508;2023-04-22T03:52:20;98718.59;;;10.19;87.24
36600;BME280;35385;55.668;37.508;2023-04-22T03:53:20;98729.53;;;10.16;86.82
36600;BME280;35385;55.668;37.508;2023-04-22T03:54:21;98768.69;;;10.62;87.61
36600;BME280;35385;55.668;37.508;2023-04-22T03:55:21;98772.09;;;10.55;86.52
36600;BME280;35385;55.668;37.508;2023-04-22T03:56:22;98652.69;;;9.83;87.02
36600;BME280;35385;55.668;37.508;2023-04-22T03:57:23;98761.13;;;10.58;86.92
36600;BME280;35385;55.668;37.508;2023-04-22T03:58:24;98763.41;;;10.53;86.65
36600;BME280;35385;55.668;37.508;2023-04-22T03:59:24;98764.28;;;10.71;86.84
36600;BME280;35385;55.668;37.508;2023-04-22T04:00:25;98783.78;;;10.81;86.25
36600;BME280;35385;55.668;37.508;2023-04-22T04:01:26;98775.09;;;10.70;85.74
36600;BME280;35385;55.668;37.508;2023-04-22T04:02:27;98777.34;;;10.74;86.15
36600;BME280;35385;55.668;37.508;2023-04-22T04:03:27;98764.03;;;10.92;85.84
36600;BME280;35385;55.668;37.508;2023-04-22T04:04:28;98768.75;;;10.98;85.30
36600;BME280;35385;55.668;37.508;2023-04-22T04:05:28;98772.84;;;11.20;84.96
36600;BME280;35385;55.668;37.508;2023-04-22T04:06:29;98763.19;;;11.27;84.44
36600;BME280;35385;55.668;37.508;2023-04-22T04:07:31;98769.69;;;11.42;83.14
36600;BME280;35385;55.668;37.508;2023-04-22T04:08:31;98767.56;;;11.46;82.68
36600;BME280;35385;55.668;37.508;2023-04-22T04:09:32;98766.88;;;11.44;82.02
36600;BME280;35385;55.668;37.508;2023-04-22T04:10:33;98764.50;;;11.58;81.63
36600;BME280;35385;55.668;37.508;2023-04-22T04:11:33;98768.09;;;11.49;80.77
36600;BME280;35385;55.668;37.508;2023-04-22T04:12:34;98767.16;;;11.58;80.14
36600;BME280;35385;55.668;37.508;2023-04-22T04:13:34;98732.34;;;11.32;80.40
36600;BME280;35385;55.668;37.508;2023-04-22T04:14:35;98684.88;;;11.09;81.00
36600;BME280;35385;55.668;37.508;2023-04-22T04:15:35;98728.97;;;11.13;81.41
36600;BME280;35385;55.668;37.508;2023-04-22T04:16:36;98763.34;;;11.25;82.06
36600;BME280;35385;55.668;37.508;2023-04-22T04:17:37;98779.09;;;11.28;82.31
36600;BME280;35385;55.668;37.508;2023-04-22T04:18:37;98768.19;;;11.22;82.71
36600;BME280;35385;55.668;37.508;2023-04-22T04:19:38;98785.19;;;11.56;82.82
36600;BME280;35385;55.668;37.508;2023-04-22T04:20:38;98776.81;;;11.51;81.26
36600;BME280;35385;55.668;37.508;2023-04-22T04:21:39;98744.19;;;11.48;80.44
36600;BME280;35385;55.668;37.508;2023-04-22T04:22:40;98765.88;;;11.62;79.61
36600;BME280;35385;55.668;37.508;2023-04-22T04:23:42;98734.78;;;11.26;80.56
36600;BME280;35385;55.668;37.508;2023-04-22T04:24:43;98778.72;;;11.77;80.19
36600;BME280;35385;55.668;37.508;2023-04-22T04:25:43;98770.69;;;12.02;79.48
36600;BME280;35385;55.668;37.508;2023-04-22T04:26:44;98774.94;;;12.13;78.27
36600;BME280;35385;55.668;37.508;2023-04-22T04:27:45;98755.56;;;12.11;77.05
36600;BME280;35385;55.668;37.508;2023-04-22T04:28:46;98787.66;;;12.37;75.86
36600;BME280;35385;55.668;37.508;2023-04-22T04:29:48;98788.00;;;12.42;76.53
36600;BME280;35385;55.668;37.508;2023-04-22T04:30:49;98780.94;;;12.33;75.86
36600;BME280;35385;55.668;37.508;2023-04-22T04:31:52;98783.66;;;12.41;75.81
36600;BME280;35385;55.668;37.508;2023-04-22T04:32:53;98739.63;;;12.35;75.65
36600;BME280;35385;55.668;37.508;2023-04-22T04:33:53;98767.41;;;12.68;74.38
36600;BME280;35385;55.668;37.508;2023-04-22T04:34:56;98779.28;;;12.74;74.39
36600;BME280;35385;55.668;37.508;2023-04-22T04:35:57;98788.47;;;12.71;73.79
36600;BME280;35385;55.668;37.508;2023-04-22T04:36:58;98773.44;;;12.79;73.32
36600;BME280;35385;55.668;37.508;2023-04-22T04:38:00;98739.09;;;12.74;72.23
36600;BME280;35385;55.668;37.508;2023-04-22T04:39:01;98785.31;;;12.76;72.79
36600;BME280;35385;55.668;37.508;2023-04-22T04:40:02;98768.16;;;12.95;72.72
36600;BME280;35385;55.668;37.508;2023-04-22T04:41:05;98751.06;;;13.04;70.72
36600;BME280;35385;55.668;37.508;2023-04-22T04:42:08;98784.88;;;13.39;69.30
36600;BME280;35385;55.668;37.508;2023-04-22T04:43:09;98784.84;;;13.31;69.10
36600;BME280;35385;55.668;37.508;2023-04-22T04:44:09;98745.81;;;12.78;70.14
36600;BME280;35385;55.668;37.508;2023-04-22T04:45:10;98782.16;;;13.23;69.75
36600;BME280;35385;55.668;37.508;2023-04-22T04:46:11;98768.13;;;13.53;70.04
36600;BME280;35385;55.668;37.508;2023-04-22T04:47:11;98746.66;;;13.53;69.88
36600;BME280;35385;55.668;37.508;2023-04-22T04:48:15;98740.25;;;13.46;66.54
36600;BME280;35385;55.668;37.508;2023-04-22T04:49:16;98793.91;;;14.03;66.35
36600;BME280;35385;55.668;37.508;2023-04-22T04:50:16;98789.09;;;13.98;65.29
36600;BME280;35385;55.668;37.508;2023-04-22T04:51:17;98787.22;;;13.91;64.09
36600;BME280;35385;55.668;37.508;2023-04-22T04:52:17;98789.56;;;13.94;64.27
36600;BME280;35385;55.668;37.508;2023-04-22T04:53:21;98791.09;;;13.80;64.99
36600;BME280;35385;55.668;37.508;2023-04-22T04:54:22;98793.09;;;13.94;64.63
36600;BME280;35385;55.668;37.508;2023-04-22T04:55:22;98745.13;;;13.59;64.25
36600;BME280;35385;55.668;37.508;2023-04-22T04:56:23;98794.94;;;14.02;64.13
36600;BME280;35385;55.668;37.508;2023-04-22T04:57:24;98790.41;;;14.02;62.56
36600;BME280;35385;55.668;37.508;2023-04-22T04:58:24;98799.97;;;13.40;64.60
36600;BME280;35385;55.668;37.508;2023-04-22T04:59:25;98741.81;;;12.82;67.05
36600;BME280;35385;55.668;37.508;2023-04-22T05:00:25;98795.44;;;13.49;66.16
36600;BME280;35385;55.668;37.508;2023-04-22T05:01:26;98795.94;;;13.93;64.52
36600;BME280;35385;55.668;37.508;2023-04-22T05:02:27;98788.25;;;13.98;62.76
36600;BME280;35385;55.668;37.508;2023-04-22T05:03:27;98752.34;;;13.99;62.25
36600;BME280;35385;55.668;37.508;2023-04-22T05:04:28;98770.03;;;14.32;60.64
36600;BME280;35385;55.668;37.508;2023-04-22T05:05:28;98786.81;;;14.50;60.38
36600;BME280;35385;55.668;37.508;2023-04-22T05:06:29;98795.72;;;14.51;59.52
36600;BME280;35385;55.668;37.508;2023-04-22T05:07:32;98784.47;;;14.31;59.56
36600;BME280;35385;55.668;37.508;2023-04-22T05:08:32;98774.59;;;14.24;61.08
36600;BME280;35385;55.668;37.508;2023-04-22T05:09:33;98790.53;;;14.17;60.44
36600;BME280;35385;55.668;37.508;2023-04-22T05:10:36;98786.69;;;14.20;59.95
36600;BME280;35385;55.668;37.508;2023-04-22T05:11:37;98770.44;;;13.89;60.12
36600;BME280;35385;55.668;37.508;2023-04-22T05:12:37;98759.34;;;14.00;58.85
36600;BME280;35385;55.668;37.508;2023-04-22T05:13:38;98803.66;;;14.28;57.89
36600;BME280;35385;55.668;37.508;2023-04-22T05:14:38;98754.34;;;13.89;59.02
36600;BME280;35385;55.668;37.508;2023-04-22T05:15:40;98781.47;;;14.26;58.16
36600;BME280;35385;55.668;37.508;2023-04-22T05:16:41;98803.13;;;14.16;57.99
36600;BME280;35385;55.668;37.508;2023-04-22T05:17:42;98802.13;;;14.42;58.87
36600;BME280;35385;55.668;37.508;2023-04-22T05:18:42;98743.16;;;14.57;56.92
36600;BME280;35385;55.668;37.508;2023-04-22T05:19:43;98795.06;;;14.88;56.18